createdAt,value
2019-03-23T00:00:44.159Z,27.70
2019-03-23T00:03:18.643Z,27.70
2019-03-23T00:05:50.086Z,27.70
2019-03-23T00:08:22.694Z,27.70
2019-03-23T00:10:55.345Z,27.80
2019-03-23T00:13:29.050Z,27.90
2019-03-23T00:16:00.722Z,27.90
2019-03-23T00:18:32.395Z,28.00
2019-03-23T00:21:04.913Z,28.00
2019-03-23T00:23:37.337Z,28.00
2019-03-23T00:26:09.940Z,28.10
2019-03-23T00:28:42.850Z,28.10
2019-03-23T00:31:14.244Z,28.10
2019-03-23T00:33:46.944Z,28.20
2019-03-23T00:36:18.763Z,28.20
2019-03-23T00:38:51.656Z,28.30
2019-03-23T00:41:25.900Z,28.40
2019-03-23T00:43:57.472Z,28.40
2019-03-23T00:46:29.727Z,28.50
2019-03-23T00:49:05.363Z,28.50
2019-03-23T00:51:38.594Z,28.60
2019-03-23T00:54:13.096Z,28.60
2019-03-23T00:56:47.519Z,28.60
2019-03-23T00:59:22.616Z,28.60
2019-03-23T01:01:54.385Z,28.70
2019-03-23T01:04:39.737Z,28.70
2019-03-23T01:07:11.510Z,28.80
2019-03-23T01:09:44.277Z,28.90
2019-03-23T01:12:15.956Z,28.90
2019-03-23T01:14:50.535Z,29.00
2019-03-23T01:17:22.068Z,29.10
2019-03-23T01:19:54.080Z,29.20
2019-03-23T01:22:28.537Z,29.20
2019-03-23T01:25:00.908Z,29.30
2019-03-23T01:27:33.631Z,29.30
2019-03-23T01:30:06.566Z,29.40
2019-03-23T01:32:39.142Z,29.50
2019-03-23T01:35:11.744Z,29.50
2019-03-23T01:37:44.281Z,29.60
2019-03-23T01:40:16.694Z,29.70
2019-03-23T01:43:22.568Z,29.70
2019-03-23T01:45:53.724Z,29.80
2019-03-23T01:48:24.901Z,29.90
2019-03-23T01:50:57.622Z,30.00
2019-03-23T01:53:33.027Z,30.10
2019-03-23T01:56:05.468Z,30.10
2019-03-23T01:58:40.434Z,30.20
2019-03-23T02:01:12.765Z,30.30
2019-03-23T02:03:44.988Z,30.50
2019-03-23T02:06:18.351Z,30.50
2019-03-23T02:08:52.162Z,30.60
2019-03-23T02:11:24.083Z,30.80
2019-03-23T02:13:56.206Z,30.80
2019-03-23T02:16:27.143Z,30.90
2019-03-23T02:18:59.489Z,31.00
2019-03-23T02:21:33.988Z,31.10
2019-03-23T02:24:06.105Z,31.20
2019-03-23T02:26:38.929Z,31.30
2019-03-23T02:29:13.721Z,31.40
2019-03-23T02:31:49.906Z,31.50
2019-03-23T02:34:23.180Z,31.60
2019-03-23T02:36:55.599Z,31.60
2019-03-23T02:39:26.980Z,31.60
2019-03-23T02:41:59.057Z,31.80
2019-03-23T02:44:33.850Z,31.90
2019-03-23T02:47:06.479Z,32.00
2019-03-23T02:49:39.171Z,32.20
2019-03-23T02:52:11.378Z,32.40
2019-03-23T02:54:49.440Z,32.50
2019-03-23T02:57:36.592Z,32.70
2019-03-23T03:00:10.734Z,32.80
2019-03-23T03:02:45.296Z,33.00
2019-03-23T03:05:17.011Z,33.20
2019-03-23T03:07:49.386Z,33.30
2019-03-23T03:10:23.055Z,33.40
2019-03-23T03:12:55.472Z,33.50
2019-03-23T03:15:27.568Z,33.70
2019-03-23T03:18:00.321Z,33.90
2019-03-23T03:20:32.536Z,34.10
2019-03-23T03:23:04.929Z,34.20
2019-03-23T03:25:35.986Z,34.30
2019-03-23T03:28:10.523Z,34.50
2019-03-23T03:30:44.208Z,34.60
2019-03-23T03:33:16.763Z,34.80
2019-03-23T03:35:51.684Z,34.90
2019-03-23T03:38:26.792Z,35.00
2019-03-23T03:40:57.952Z,35.20
2019-03-23T03:43:32.683Z,35.30
2019-03-23T03:46:06.899Z,35.40
2019-03-23T03:48:39.248Z,35.50
2019-03-23T03:51:13.732Z,35.60
2019-03-23T03:53:45.873Z,35.90
2019-03-23T03:56:19.661Z,36.00
2019-03-23T03:58:51.925Z,36.30
2019-03-23T04:01:24.745Z,36.30
2019-03-23T04:03:58.363Z,36.50
2019-03-23T04:06:32.479Z,36.60
2019-03-23T04:09:03.850Z,36.70
2019-03-23T04:11:37.805Z,36.80
2019-03-23T04:14:10.430Z,37.00
2019-03-23T04:16:43.189Z,37.00
2019-03-23T04:19:15.977Z,37.10
2019-03-23T04:21:49.953Z,37.20
2019-03-23T04:24:22.419Z,37.40
2019-03-23T04:26:54.881Z,37.40
2019-03-23T04:29:28.953Z,37.50
2019-03-23T04:32:04.364Z,37.60
2019-03-23T04:34:36.478Z,37.70
2019-03-23T04:37:10.620Z,37.80
2019-03-23T04:39:41.883Z,37.90
2019-03-23T04:42:14.653Z,38.00
2019-03-23T04:44:49.495Z,38.10
2019-03-23T04:47:21.839Z,38.10
2019-03-23T04:49:53.955Z,38.20
2019-03-23T04:52:25.324Z,38.30
2019-03-23T04:54:57.433Z,38.40
2019-03-23T04:57:29.538Z,38.60
2019-03-23T05:00:03.490Z,38.60
2019-03-23T05:02:40.830Z,38.70
2019-03-23T05:05:13.283Z,38.80
2019-03-23T05:07:45.756Z,38.80
2019-03-23T05:10:18.559Z,38.90
2019-03-23T05:12:53.263Z,39.00
2019-03-23T05:15:25.547Z,39.10
2019-03-23T05:18:01.351Z,39.10
2019-03-23T05:20:34.720Z,39.20
2019-03-23T05:23:07.776Z,39.20
2019-03-23T05:25:40.417Z,39.30
2019-03-23T05:28:14.688Z,39.30
2019-03-23T05:30:56.846Z,39.30
2019-03-23T05:33:30.923Z,39.40
2019-03-23T05:36:03.343Z,39.50
2019-03-23T05:38:44.326Z,39.60
2019-03-23T05:41:14.038Z,39.80
2019-03-23T05:43:44.988Z,39.90
2019-03-23T05:46:17.435Z,40.00
2019-03-23T05:48:49.807Z,40.10
2019-03-23T05:51:22.557Z,40.30
2019-03-23T05:53:54.712Z,40.30
2019-03-23T05:56:30.256Z,40.50
2019-03-23T05:59:04.553Z,40.60
2019-03-23T06:01:37.464Z,40.60
2019-03-23T06:04:09.556Z,40.70
2019-03-23T06:06:48.007Z,40.80
2019-03-23T06:09:21.991Z,40.80
2019-03-23T06:11:53.464Z,41.00
2019-03-23T06:14:25.520Z,41.10
2019-03-23T06:16:57.916Z,41.00
2019-03-23T06:19:33.091Z,41.00
2019-03-23T06:22:11.410Z,41.00
2019-03-23T06:24:45.565Z,41.00
2019-03-23T06:27:17.674Z,41.00
2019-03-23T06:29:52.731Z,40.90
2019-03-23T06:32:25.168Z,41.00
2019-03-23T06:34:57.832Z,40.90
2019-03-23T06:37:32.165Z,41.00
2019-03-23T06:40:07.285Z,40.90
2019-03-23T06:42:40.456Z,41.00
2019-03-23T06:45:12.893Z,41.00
2019-03-23T06:47:45.401Z,41.00
2019-03-23T06:50:18.683Z,41.00
2019-03-23T06:52:51.355Z,40.90
2019-03-23T06:55:25.278Z,40.90
2019-03-23T06:58:00.340Z,40.90
2019-03-23T07:00:32.693Z,41.00
2019-03-23T07:03:06.754Z,41.10
2019-03-23T07:08:32.219Z,41.10
2019-03-23T07:11:02.770Z,41.10
2019-03-23T07:13:36.476Z,41.20
2019-03-23T07:16:10.760Z,41.20
2019-03-23T07:18:43.312Z,41.20
2019-03-23T07:21:15.631Z,41.20
2019-03-23T07:23:47.928Z,41.10
2019-03-23T07:26:19.379Z,41.00
2019-03-23T07:28:51.834Z,41.00
2019-03-23T07:31:25.731Z,40.90
2019-03-23T07:33:58.370Z,40.90
2019-03-23T07:36:30.841Z,40.90
2019-03-23T07:39:03.022Z,40.90
2019-03-23T07:41:36.935Z,40.80
2019-03-23T07:44:09.396Z,40.70
2019-03-23T07:46:43.103Z,40.70
2019-03-23T07:49:17.764Z,40.60
2019-03-23T07:51:49.014Z,40.60
2019-03-23T07:54:21.699Z,40.60
2019-03-23T07:56:53.681Z,40.60
2019-03-23T07:59:25.894Z,40.60
2019-03-23T08:01:57.999Z,40.60
2019-03-23T08:04:29.676Z,40.60
2019-03-23T08:07:01.796Z,40.60
2019-03-23T08:09:37.854Z,40.60
2019-03-23T08:12:20.193Z,40.60
2019-03-23T08:14:54.367Z,40.60
2019-03-23T08:17:28.279Z,40.50
2019-03-23T08:20:02.355Z,40.40
2019-03-23T08:22:34.806Z,40.30
2019-03-23T08:25:08.103Z,40.20
2019-03-23T08:27:41.668Z,40.10
2019-03-23T08:30:15.665Z,40.10
2019-03-23T08:32:48.286Z,40.10
2019-03-23T08:35:20.377Z,40.20
2019-03-23T08:37:51.525Z,40.30
2019-03-23T08:40:23.877Z,40.30
2019-03-23T08:42:56.073Z,40.40
2019-03-23T08:45:28.904Z,40.40
2019-03-23T08:48:03.852Z,40.30
2019-03-23T08:50:35.252Z,40.20
2019-03-23T08:53:07.343Z,40.20
2019-03-23T08:55:41.153Z,40.10
2019-03-23T08:58:13.511Z,40.10
2019-03-23T09:00:47.288Z,40.10
2019-03-23T09:03:21.515Z,40.00
2019-03-23T09:05:56.712Z,39.90
2019-03-23T09:08:40.732Z,39.90
2019-03-23T09:11:20.442Z,39.80
2019-03-23T09:13:45.639Z,39.80
2019-03-23T09:16:17.839Z,39.70
2019-03-23T09:18:49.024Z,39.70
2019-03-23T09:21:23.538Z,39.70
2019-03-23T09:23:54.795Z,39.70
2019-03-23T09:26:27.195Z,39.70
2019-03-23T09:29:01.260Z,39.70
2019-03-23T09:31:32.500Z,39.70
2019-03-23T09:34:04.689Z,39.70
2019-03-23T09:36:36.871Z,39.60
2019-03-23T09:39:13.116Z,39.50
2019-03-23T09:41:45.520Z,39.40
2019-03-23T09:44:17.708Z,39.40
2019-03-23T09:46:50.008Z,39.30
2019-03-23T09:49:22.113Z,39.30
2019-03-23T09:51:56.462Z,39.20
2019-03-23T09:54:28.804Z,39.20
2019-03-23T09:57:01.662Z,39.10
2019-03-23T09:59:34.163Z,39.00
2019-03-23T10:02:06.688Z,39.00
2019-03-23T10:04:39.036Z,38.90
2019-03-23T10:07:11.539Z,38.90
2019-03-23T10:09:43.529Z,38.80
2019-03-23T10:12:15.771Z,38.70
2019-03-23T10:14:52.742Z,38.70
2019-03-23T10:17:26.510Z,38.60
2019-03-23T10:19:57.950Z,38.50
2019-03-23T10:22:31.492Z,38.50
2019-03-23T10:25:02.796Z,38.40
2019-03-23T10:27:37.564Z,38.30
2019-03-23T10:30:11.837Z,38.20
2019-03-23T10:32:43.982Z,38.10
2019-03-23T10:35:18.713Z,38.00
2019-03-23T10:37:51.086Z,37.90
2019-03-23T10:40:31.700Z,37.80
2019-03-23T10:42:54.818Z,37.70
2019-03-23T10:45:27.251Z,37.60
2019-03-23T10:47:59.689Z,37.50
2019-03-23T10:50:32.079Z,37.50
2019-03-23T10:53:03.533Z,37.30
2019-03-23T10:55:34.783Z,37.20
2019-03-23T10:58:07.099Z,37.20
2019-03-23T11:00:38.598Z,37.10
2019-03-23T11:03:11.075Z,37.00
2019-03-23T11:05:46.353Z,36.80
2019-03-23T11:08:20.703Z,36.80
2019-03-23T11:10:52.768Z,36.60
2019-03-23T11:13:26.335Z,36.60
2019-03-23T11:16:00.750Z,36.50
2019-03-23T11:18:34.724Z,36.40
2019-03-23T11:21:09.419Z,36.30
2019-03-23T11:23:45.478Z,36.20
2019-03-23T11:26:17.394Z,36.10
2019-03-23T11:28:48.746Z,35.90
2019-03-23T11:31:21.301Z,35.90
2019-03-23T11:33:53.393Z,35.70
2019-03-23T11:36:25.877Z,35.50
2019-03-23T11:38:59.775Z,35.40
2019-03-23T11:41:34.622Z,35.30
2019-03-23T11:44:05.747Z,35.10
2019-03-23T11:46:37.092Z,35.10
2019-03-23T11:49:08.429Z,35.00
2019-03-23T11:51:43.091Z,35.00
2019-03-23T11:54:15.471Z,34.90
2019-03-23T11:56:49.579Z,34.80
2019-03-23T11:59:22.498Z,34.80
2019-03-23T12:01:58.446Z,34.70
2019-03-23T12:04:33.034Z,34.60
2019-03-23T12:07:04.215Z,34.60
2019-03-23T12:09:36.910Z,34.50
2019-03-23T12:12:09.009Z,34.50
2019-03-23T12:14:43.067Z,34.50
2019-03-23T12:17:18.785Z,34.40
2019-03-23T12:19:51.716Z,34.40
2019-03-23T12:22:24.086Z,34.40
2019-03-23T12:24:58.355Z,34.40
2019-03-23T12:27:30.632Z,34.30
2019-03-23T12:30:07.043Z,34.30
2019-03-23T12:32:36.899Z,34.20
2019-03-23T12:35:10.764Z,34.10
2019-03-23T12:37:46.296Z,34.10
2019-03-23T12:40:18.471Z,34.00
2019-03-23T12:42:50.020Z,33.90
2019-03-23T12:45:22.478Z,33.90
2019-03-23T12:47:54.783Z,33.90
2019-03-23T12:50:28.944Z,33.80
2019-03-23T12:53:02.148Z,33.90
2019-03-23T12:55:34.594Z,33.90
2019-03-23T12:58:06.971Z,33.90
2019-03-23T13:00:39.186Z,33.80
2019-03-23T13:03:10.326Z,33.80
2019-03-23T13:05:44.660Z,33.80
2019-03-23T13:08:16.879Z,33.90
2019-03-23T13:10:51.079Z,33.80
2019-03-23T13:13:28.283Z,33.80
2019-03-23T13:15:59.492Z,33.80
2019-03-23T13:18:33.329Z,33.80
2019-03-23T13:21:05.975Z,33.80
2019-03-23T13:23:40.795Z,33.80
2019-03-23T13:26:12.027Z,33.80
2019-03-23T13:28:44.428Z,33.80
2019-03-23T13:31:18.542Z,33.80
2019-03-23T13:33:50.963Z,33.80
2019-03-23T13:36:23.214Z,33.80
2019-03-23T13:38:57.317Z,33.80
2019-03-23T13:41:29.741Z,33.70
2019-03-23T13:44:03.847Z,33.70
2019-03-23T13:46:36.308Z,33.70
2019-03-23T13:49:12.686Z,33.70
2019-03-23T13:51:45.519Z,33.70
2019-03-23T13:54:17.850Z,33.60
2019-03-23T13:56:50.393Z,33.50
2019-03-23T13:59:22.539Z,33.50
2019-03-23T14:01:56.914Z,33.40
2019-03-23T14:04:29.162Z,33.30
2019-03-23T14:07:01.579Z,33.20
2019-03-23T14:09:33.581Z,33.10
2019-03-23T14:12:11.035Z,33.10
2019-03-23T14:14:43.270Z,33.10
2019-03-23T14:17:15.453Z,33.10
2019-03-23T14:19:48.455Z,33.10
2019-03-23T14:22:19.688Z,33.10
2019-03-23T14:24:56.175Z,33.10
2019-03-23T14:27:30.438Z,33.00
2019-03-23T14:30:01.327Z,33.00
2019-03-23T14:32:34.047Z,33.00
2019-03-23T14:35:06.897Z,33.00
2019-03-23T14:37:39.067Z,33.00
2019-03-23T14:40:13.155Z,33.00
2019-03-23T14:42:44.474Z,33.00
2019-03-23T14:45:19.107Z,33.00
2019-03-23T14:47:50.260Z,32.90
2019-03-23T14:50:21.807Z,32.90
2019-03-23T14:52:52.918Z,32.90
2019-03-23T14:55:24.970Z,32.90
2019-03-23T14:57:57.431Z,32.80
2019-03-23T15:00:32.172Z,32.80
2019-03-23T15:03:10.562Z,32.70
2019-03-23T15:05:42.887Z,32.70
2019-03-23T15:08:17.567Z,32.70
2019-03-23T15:10:51.290Z,32.70
2019-03-23T15:13:23.699Z,32.70
2019-03-23T15:15:56.071Z,32.60
2019-03-23T15:18:30.328Z,32.60
2019-03-23T15:21:01.822Z,32.60
2019-03-23T15:23:33.125Z,32.60
2019-03-23T15:26:07.250Z,32.50
2019-03-23T15:28:41.393Z,32.40
2019-03-23T15:31:13.899Z,32.40
2019-03-23T15:33:46.607Z,32.40
2019-03-23T15:36:18.921Z,32.30
2019-03-23T15:38:51.358Z,32.30
2019-03-23T15:41:25.243Z,32.20
2019-03-23T15:43:57.461Z,32.20
2019-03-23T15:46:49.144Z,32.20
2019-03-23T15:49:23.440Z,32.20
2019-03-23T15:51:55.123Z,32.10
2019-03-23T15:54:30.186Z,32.10
2019-03-23T15:57:03.852Z,31.90
2019-03-23T15:59:36.259Z,31.80
2019-03-23T16:02:07.598Z,31.60
2019-03-23T16:04:39.836Z,31.50
2019-03-23T16:07:10.987Z,31.40
2019-03-23T16:09:45.223Z,31.20
2019-03-23T16:12:17.322Z,31.10
2019-03-23T16:14:54.430Z,31.10
2019-03-23T16:17:26.783Z,31.00
2019-03-23T16:19:58.751Z,30.90
2019-03-23T16:22:32.452Z,30.80
2019-03-23T16:25:04.949Z,30.80
2019-03-23T16:27:36.290Z,30.70
2019-03-23T16:30:13.496Z,30.70
2019-03-23T16:32:45.875Z,30.70
2019-03-23T16:35:18.448Z,30.70
2019-03-23T16:37:50.698Z,30.60
2019-03-23T16:40:23.146Z,30.60
2019-03-23T16:42:54.342Z,30.60
2019-03-23T16:45:26.492Z,30.60
2019-03-23T16:48:00.584Z,30.50
2019-03-23T16:50:33.357Z,30.50
2019-03-23T16:53:05.746Z,30.50
2019-03-23T16:55:37.975Z,30.40
2019-03-23T16:58:16.037Z,30.40
2019-03-23T17:00:42.843Z,30.40
2019-03-23T17:03:14.187Z,30.40
2019-03-23T17:05:47.022Z,30.30
2019-03-23T17:08:18.320Z,30.30
2019-03-23T17:10:52.114Z,30.20
2019-03-23T17:13:23.460Z,30.10
2019-03-23T17:16:14.924Z,30.10
2019-03-23T17:18:47.251Z,30.00
2019-03-23T17:21:19.905Z,30.00
2019-03-23T17:23:52.583Z,29.90
2019-03-23T17:26:26.804Z,29.90
2019-03-23T17:28:59.381Z,29.80
2019-03-23T17:31:31.280Z,29.80
2019-03-23T17:34:03.822Z,29.70
2019-03-23T17:36:36.219Z,29.70
2019-03-23T17:39:09.587Z,29.70
2019-03-23T17:41:44.320Z,29.70
2019-03-23T17:44:16.615Z,29.60
2019-03-23T17:46:50.640Z,29.60
2019-03-23T17:49:22.938Z,29.50
2019-03-23T17:51:55.606Z,29.50
2019-03-23T17:54:28.206Z,29.50
2019-03-23T17:57:00.838Z,29.40
2019-03-23T17:59:32.122Z,29.40
2019-03-23T18:02:04.928Z,29.40
2019-03-23T18:04:37.133Z,29.30
2019-03-23T18:10:12.380Z,29.20
2019-03-23T18:12:53.250Z,29.10
2019-03-23T18:18:24.888Z,29.00
2019-03-23T18:21:07.412Z,29.00
2019-03-23T18:23:40.023Z,28.90
2019-03-23T18:26:13.887Z,28.90
2019-03-23T18:28:44.900Z,28.90
2019-03-23T18:31:16.463Z,28.80
2019-03-23T18:33:50.704Z,28.80
2019-03-23T18:36:25.833Z,28.70
2019-03-23T18:38:58.395Z,28.70
2019-03-23T18:41:29.700Z,28.70
2019-03-23T18:44:00.819Z,28.60
2019-03-23T18:46:33.138Z,28.60
2019-03-23T18:49:05.684Z,28.60
2019-03-23T18:51:39.402Z,28.60
2019-03-23T18:54:13.578Z,28.50
2019-03-23T18:56:45.596Z,28.50
2019-03-23T18:59:18.003Z,28.40
2019-03-23T19:01:50.374Z,28.40
2019-03-23T19:04:23.213Z,28.30
2019-03-23T19:06:54.443Z,28.30
2019-03-23T19:09:26.900Z,28.30
2019-03-23T19:11:59.113Z,28.30
2019-03-23T19:14:30.682Z,28.20
2019-03-23T19:17:02.998Z,28.20
2019-03-23T19:19:35.027Z,28.20
2019-03-23T19:22:06.273Z,28.10
2019-03-23T19:24:37.447Z,28.10
2019-03-23T19:27:09.491Z,28.00
2019-03-23T19:29:40.832Z,28.10
2019-03-23T19:32:13.331Z,28.10
2019-03-23T19:34:45.560Z,28.00
2019-03-23T19:37:17.895Z,27.90
2019-03-23T19:39:51.813Z,27.90
2019-03-23T19:42:23.168Z,27.90
2019-03-23T19:44:55.582Z,27.80
2019-03-23T19:47:29.572Z,27.80
2019-03-23T19:50:03.795Z,27.80
2019-03-23T19:52:36.238Z,27.80
2019-03-23T19:55:10.141Z,27.70
2019-03-23T19:57:44.453Z,27.70
2019-03-23T20:00:16.633Z,27.70
2019-03-23T20:02:53.085Z,27.70
2019-03-23T20:05:25.753Z,27.60
2019-03-23T20:07:58.238Z,27.60
2019-03-23T20:10:30.325Z,27.60
2019-03-23T20:13:03.002Z,27.60
2019-03-23T20:15:37.900Z,27.60
2019-03-23T20:18:09.377Z,27.50
2019-03-23T20:20:40.711Z,27.50
2019-03-23T20:23:12.803Z,27.50
2019-03-23T20:25:44.373Z,27.50
2019-03-23T20:28:15.656Z,27.50
2019-03-23T20:30:48.123Z,27.50
2019-03-23T20:33:21.742Z,27.40
2019-03-23T20:35:53.081Z,27.40
2019-03-23T20:38:27.063Z,27.40
2019-03-23T20:40:59.780Z,27.40
2019-03-23T20:43:31.085Z,27.40
2019-03-23T20:46:02.402Z,27.40
2019-03-23T20:48:36.465Z,27.50
2019-03-23T20:51:10.243Z,27.40
2019-03-23T20:53:41.552Z,27.40
2019-03-23T20:56:12.690Z,27.40
2019-03-23T20:58:47.282Z,27.50
2019-03-23T21:01:18.693Z,27.50
2019-03-23T21:03:50.931Z,27.50
2019-03-23T21:06:23.610Z,27.40
2019-03-23T21:08:55.814Z,27.40
2019-03-23T21:11:27.086Z,27.40
2019-03-23T21:13:58.115Z,27.40
2019-03-23T21:16:30.336Z,27.40
2019-03-23T21:19:02.543Z,27.30
2019-03-23T21:21:34.834Z,27.30
2019-03-23T21:24:06.052Z,27.30
2019-03-23T21:26:37.337Z,27.30
2019-03-23T21:29:08.528Z,27.30
2019-03-23T21:31:39.835Z,27.30
2019-03-23T21:34:12.278Z,27.30
2019-03-23T21:36:46.574Z,27.30
2019-03-23T21:39:19.007Z,27.30
2019-03-23T21:41:51.096Z,27.30
2019-03-23T21:44:30.628Z,27.30
2019-03-23T21:46:54.998Z,27.30
2019-03-23T21:49:27.473Z,27.30
2019-03-23T21:52:01.114Z,27.20
2019-03-23T21:54:35.254Z,27.20
2019-03-23T21:57:07.771Z,27.20
2019-03-23T21:59:39.974Z,27.20
2019-03-23T22:02:11.006Z,27.20
2019-03-23T22:04:42.048Z,27.20
2019-03-23T22:07:16.302Z,27.10
2019-03-23T22:09:47.522Z,27.10
2019-03-23T22:12:19.814Z,27.00
2019-03-23T22:14:51.042Z,27.00
2019-03-23T22:17:23.277Z,27.00
2019-03-23T22:19:55.720Z,27.00
2019-03-23T22:22:28.145Z,27.00
2019-03-23T22:24:59.979Z,27.00
2019-03-23T22:27:32.104Z,27.00
2019-03-23T22:30:04.726Z,27.00
2019-03-23T22:32:35.850Z,26.90
2019-03-23T22:35:08.792Z,26.90
2019-03-23T22:37:40.023Z,27.00
2019-03-23T22:40:12.121Z,26.90
2019-03-23T22:42:43.408Z,26.90
2019-03-23T22:45:15.915Z,27.00
2019-03-23T22:47:48.106Z,27.00
2019-03-23T22:50:20.311Z,27.00
2019-03-23T22:52:52.951Z,27.00
2019-03-23T22:55:25.133Z,27.00
2019-03-23T22:57:57.446Z,27.00
2019-03-23T23:00:29.928Z,27.00
2019-03-23T23:03:01.227Z,27.00
2019-03-23T23:05:35.626Z,27.00
2019-03-23T23:08:13.217Z,27.00
2019-03-23T23:10:45.874Z,27.00
2019-03-23T23:13:17.866Z,27.00
2019-03-23T23:15:50.314Z,27.00
2019-03-23T23:18:22.408Z,27.00
2019-03-23T23:20:54.698Z,27.00
2019-03-23T23:23:27.326Z,27.10
2019-03-23T23:25:58.594Z,27.10
2019-03-23T23:28:31.087Z,27.10
2019-03-23T23:31:02.414Z,27.20
2019-03-23T23:33:36.845Z,27.20
2019-03-23T23:36:08.040Z,27.20
2019-03-23T23:38:40.730Z,27.10
2019-03-23T23:41:14.623Z,27.20
2019-03-23T23:43:47.256Z,27.20
2019-03-23T23:46:19.794Z,27.20
2019-03-23T23:48:52.125Z,27.20
2019-03-23T23:51:23.568Z,27.20
2019-03-23T23:53:55.660Z,27.30
2019-03-23T23:56:27.876Z,27.30
2019-03-23T23:59:01.851Z,27.40
